Time;durP1;ratioP1;P1;durP2;ratioP2;P2;SDS_P1;SDS_P2;PMS_P1;PMS_P2;Temp;Humidity;BMP_temperature;BMP_pressure;BME280_temperature;BME280_humidity;BME280_pressure;Samples;Min_cycle;Max_cycle;Signal;HPM_P1;HPM_P2
2023/09/10 00:00:50;;;;;;;17.13;13.10;;;17.60;99.90;;;;;;4954020;28;20047;-63
2023/09/10 00:03:17;;;;;;;16.40;12.60;;;17.50;99.90;;;;;;4972790;28;20101;-63
2023/09/10 00:05:44;;;;;;;16.30;12.75;;;17.50;99.90;;;;;;4965440;28;20121;-63
2023/09/10 00:08:11;;;;;;;17.05;11.73;;;17.50;99.90;;;;;;4971594;28;20039;-63
2023/09/10 00:10:38;;;;;;;17.55;13.20;;;17.40;99.90;;;;;;4964761;28;20059;-63
2023/09/10 00:13:05;;;;;;;19.20;12.73;;;17.50;99.90;;;;;;4964780;28;20054;-63
2023/09/10 00:15:32;;;;;;;17.90;13.68;;;17.40;99.90;;;;;;4973266;28;20376;-63
2023/09/10 00:17:59;;;;;;;19.55;13.48;;;17.40;99.90;;;;;;4964278;28;20058;-63
2023/09/10 00:20:27;;;;;;;17.70;13.15;;;17.40;99.90;;;;;;4959219;28;20053;-62
2023/09/10 00:22:55;;;;;;;16.25;12.90;;;17.30;99.90;;;;;;4968124;28;20125;-63
2023/09/10 00:25:22;;;;;;;23.50;14.00;;;17.30;99.90;;;;;;4961266;28;20054;-63
2023/09/10 00:27:49;;;;;;;16.80;12.90;;;17.30;99.90;;;;;;4960560;28;20138;-63
2023/09/10 00:30:16;;;;;;;20.98;14.57;;;17.30;99.90;;;;;;4945941;28;20051;-61
2023/09/10 00:32:43;;;;;;;17.40;13.63;;;17.30;99.90;;;;;;4961300;28;20077;-63
2023/09/10 00:35:10;;;;;;;18.33;14.45;;;17.30;99.90;;;;;;4962655;28;20432;-63
2023/09/10 00:37:37;;;;;;;16.65;13.93;;;17.30;99.90;;;;;;4949276;28;20059;-63
2023/09/10 00:40:05;;;;;;;17.38;14.20;;;17.30;99.90;;;;;;4950242;28;20053;-63
2023/09/10 00:42:32;;;;;;;18.08;14.40;;;17.30;99.90;;;;;;4964491;28;20057;-63
2023/09/10 00:44:59;;;;;;;22.63;15.95;;;17.30;99.90;;;;;;4945738;28;20496;-63
2023/09/10 00:47:27;;;;;;;19.40;15.40;;;17.30;99.90;;;;;;4970648;28;20050;-63
2023/09/10 00:49:54;;;;;;;18.45;15.13;;;17.40;99.90;;;;;;4963521;28;20452;-63
2023/09/10 00:52:22;;;;;;;22.05;15.73;;;17.40;99.90;;;;;;4963881;28;20034;-63
2023/09/10 00:54:49;;;;;;;17.88;13.23;;;17.50;99.90;;;;;;4963907;28;20047;-63
2023/09/10 00:57:16;;;;;;;20.33;13.50;;;17.40;99.90;;;;;;4963592;28;20047;-63
2023/09/10 00:59:44;;;;;;;16.88;14.10;;;17.30;99.90;;;;;;4954427;28;20054;-63
2023/09/10 01:02:13;;;;;;;20.90;14.50;;;17.10;99.90;;;;;;4950051;28;20050;-62
2023/09/10 01:04:41;;;;;;;21.10;14.98;;;17.20;99.90;;;;;;4954066;28;20105;-63
2023/09/10 01:07:09;;;;;;;19.20;13.88;;;17.10;99.90;;;;;;4964241;28;20249;-62
2023/09/10 01:09:36;;;;;;;17.92;14.93;;;17.00;99.90;;;;;;4969898;28;20046;-63
2023/09/10 01:12:22;;;;;;;17.92;13.98;;;16.90;99.90;;;;;;4954255;28;20117;-63
2023/09/10 01:15:04;;;;;;;19.05;14.10;;;16.90;99.90;;;;;;4953775;28;20134;-63
2023/09/10 01:17:45;;;;;;;17.88;14.00;;;16.80;99.90;;;;;;4972133;28;20058;-63
2023/09/10 01:20:32;;;;;;;19.70;14.05;;;16.80;99.90;;;;;;4971105;28;20043;-63
2023/09/10 01:23:16;;;;;;;17.13;13.85;;;16.70;99.90;;;;;;4964417;28;20054;-63
2023/09/10 01:25:44;;;;;;;16.65;12.85;;;16.70;99.90;;;;;;4954733;28;20051;-63
2023/09/10 01:28:11;;;;;;;16.83;13.48;;;16.70;99.90;;;;;;4971462;28;20450;-63
2023/09/10 01:30:38;;;;;;;18.50;14.25;;;16.70;99.90;;;;;;4948379;28;20061;-63
2023/09/10 01:33:26;;;;;;;16.55;14.10;;;16.70;99.90;;;;;;4971493;28;20043;-63
2023/09/10 01:36:01;;;;;;;18.23;14.63;;;16.60;99.90;;;;;;4954413;28;20055;-63
2023/09/10 01:39:07;;;;;;;20.23;12.65;;;16.50;99.90;;;;;;4953338;28;20082;-63
2023/09/10 01:41:36;;;;;;;20.02;14.43;;;16.60;99.90;;;;;;4912331;28;20112;-63
2023/09/10 01:44:05;;;;;;;18.05;14.45;;;16.60;99.90;;;;;;4963510;28;20440;-63
2023/09/10 01:46:35;;;;;;;16.10;13.35;;;16.60;99.90;;;;;;4952924;28;20054;-63
2023/09/10 01:49:02;;;;;;;16.63;13.65;;;16.50;99.90;;;;;;4953911;28;20053;-63
2023/09/10 01:51:29;;;;;;;;;;;16.60;99.90;;;;;;4954331;28;20146;-62
2023/09/10 01:53:56;;;;;;;16.88;13.57;;;16.50;99.90;;;;;;4971748;28;19922;-63
2023/09/10 01:56:23;;;;;;;17.25;14.30;;;16.50;99.90;;;;;;4947897;28;20081;-63
2023/09/10 01:58:50;;;;;;;;;;;16.40;99.90;;;;;;4967627;28;20051;-63
2023/09/10 02:01:17;;;;;;;18.45;14.52;;;16.60;99.90;;;;;;4950950;28;19926;-63
2023/09/10 02:03:44;;;;;;;19.73;14.27;;;16.50;99.90;;;;;;4951686;28;20050;-63
2023/09/10 02:06:11;;;;;;;23.83;15.07;;;16.50;99.90;;;;;;4961134;28;20046;-63
2023/09/10 02:08:38;;;;;;;17.13;13.63;;;16.40;99.90;;;;;;4974706;28;20584;-62
2023/09/10 02:11:05;;;;;;;18.55;14.15;;;16.50;99.90;;;;;;4956471;28;20047;-63
2023/09/10 02:13:32;;;;;;;19.90;14.55;;;16.50;99.90;;;;;;4962692;28;20496;-62
2023/09/10 02:15:59;;;;;;;18.60;14.45;;;16.40;99.90;;;;;;4970400;28;20053;-63
2023/09/10 02:18:28;;;;;;;19.08;13.48;;;16.40;99.90;;;;;;4948552;28;20059;-63
2023/09/10 02:20:55;;;;;;;17.55;14.15;;;16.50;99.90;;;;;;4963835;28;20039;-63
2023/09/10 02:23:22;;;;;;;18.77;13.75;;;16.40;99.90;;;;;;4973213;28;20066;-63
2023/09/10 02:25:48;;;;;;;18.63;13.40;;;16.40;99.90;;;;;;4941454;28;20061;-63
2023/09/10 02:28:15;;;;;;;15.93;13.50;;;16.40;99.90;;;;;;4973520;28;20043;-63
2023/09/10 02:30:42;;;;;;;16.40;13.55;;;16.40;99.90;;;;;;4956970;28;20061;-63
2023/09/10 02:33:09;;;;;;;19.35;13.38;;;16.40;99.90;;;;;;4952478;28;20157;-63
2023/09/10 02:35:36;;;;;;;17.48;13.95;;;16.30;99.90;;;;;;4973297;28;20403;-63
2023/09/10 02:38:03;;;;;;;21.38;14.98;;;16.30;99.90;;;;;;4956275;28;20054;-63
2023/09/10 02:40:30;;;;;;;;;;;16.30;99.90;;;;;;4948960;28;20515;-63
2023/09/10 02:42:57;;;;;;;24.70;14.00;;;16.30;99.90;;;;;;4969650;28;19928;-62
2023/09/10 02:45:23;;;;;;;19.75;13.68;;;16.30;99.90;;;;;;4955743;28;20412;-63
2023/09/10 02:47:50;;;;;;;18.02;14.15;;;16.30;99.90;;;;;;4957474;28;20049;-63
2023/09/10 02:50:17;;;;;;;18.88;13.98;;;16.30;99.90;;;;;;4973761;28;20054;-63
2023/09/10 02:52:44;;;;;;;18.90;14.25;;;16.20;99.90;;;;;;4956533;28;20070;-63
2023/09/10 02:55:11;;;;;;;20.05;13.57;;;16.20;99.90;;;;;;4969124;28;20053;-63
2023/09/10 02:57:38;;;;;;;16.88;12.90;;;16.20;99.90;;;;;;4949428;28;20074;-63
2023/09/10 03:00:05;;;;;;;16.50;13.13;;;16.20;99.90;;;;;;4954994;28;20567;-63
2023/09/10 03:02:32;;;;;;;;;;;16.20;99.90;;;;;;4953204;28;20044;-63
2023/09/10 03:04:59;;;;;;;17.48;13.15;;;16.20;99.90;;;;;;4969254;28;19941;-62
2023/09/10 03:07:26;;;;;;;20.35;13.63;;;16.20;99.90;;;;;;4956188;28;20054;-63
2023/09/10 03:09:53;;;;;;;16.20;12.82;;;16.20;99.90;;;;;;4955836;28;20047;-63
2023/09/10 03:12:22;;;;;;;16.60;12.68;;;16.20;99.90;;;;;;4950207;28;20430;-63
2023/09/10 03:14:49;;;;;;;17.65;13.32;;;16.30;99.90;;;;;;4966301;28;20058;-63
2023/09/10 03:17:16;;;;;;;;;;;16.20;99.90;;;;;;4955924;28;20146;-63
2023/09/10 03:19:44;;;;;;;16.40;11.90;;;16.20;99.90;;;;;;4954305;28;20303;-63
2023/09/10 03:22:13;;;;;;;16.38;12.68;;;16.20;99.90;;;;;;4956688;28;20412;-63
2023/09/10 03:24:40;;;;;;;15.68;12.50;;;16.20;99.90;;;;;;4963017;28;20043;-63
2023/09/10 03:27:07;;;;;;;21.90;13.48;;;16.20;99.90;;;;;;4955574;28;20071;-63
2023/09/10 03:29:34;;;;;;;18.45;13.85;;;16.10;99.90;;;;;;4964550;28;20056;-63
2023/09/10 03:32:04;;;;;;;15.20;12.35;;;16.00;99.90;;;;;;4956317;28;20047;-63
2023/09/10 03:34:31;;;;;;;19.52;13.82;;;15.90;99.90;;;;;;4954946;28;20098;-62
2023/09/10 03:36:58;;;;;;;21.25;13.40;;;16.00;99.90;;;;;;4950575;29;20048;-63
2023/09/10 03:39:26;;;;;;;16.90;13.15;;;15.90;99.90;;;;;;4962554;28;20047;-63
2023/09/10 03:41:53;;;;;;;18.40;13.75;;;15.90;99.90;;;;;;4955951;28;20070;-63
2023/09/10 03:44:21;;;;;;;20.02;13.48;;;15.90;99.90;;;;;;4970219;28;20156;-63
2023/09/10 03:46:48;;;;;;;18.08;14.32;;;15.90;99.90;;;;;;4948013;28;20504;-63
2023/09/10 03:49:15;;;;;;;18.35;12.95;;;15.90;99.90;;;;;;4955558;28;20495;-63
2023/09/10 03:51:42;;;;;;;15.57;12.40;;;15.90;99.90;;;;;;4964937;28;20463;-63
2023/09/10 03:54:11;;;;;;;18.23;13.00;;;15.80;99.90;;;;;;4964596;28;20051;-63
2023/09/10 03:56:40;;;;;;;20.90;13.23;;;15.70;99.90;;;;;;4968098;28;20047;-63
2023/09/10 03:59:07;;;;;;;18.05;14.18;;;15.60;99.90;;;;;;4949285;28;20149;-63
2023/09/10 04:01:35;;;;;;;21.92;15.60;;;15.70;99.90;;;;;;4970804;28;20460;-63
2023/09/10 04:04:06;;;;;;;19.50;15.02;;;15.70;99.90;;;;;;4967868;28;20036;-63
2023/09/10 04:06:33;;;;;;;18.65;13.80;;;15.60;99.90;;;;;;4972742;28;20042;-63
2023/09/10 04:08:59;;;;;;;18.90;13.55;;;15.60;99.90;;;;;;4962358;28;20051;-63
2023/09/10 04:11:26;;;;;;;18.83;13.55;;;15.50;99.90;;;;;;4972706;28;20074;-63
2023/09/10 04:13:53;;;;;;;18.77;14.38;;;15.50;99.90;;;;;;4954404;28;20049;-63
2023/09/10 04:16:20;;;;;;;19.10;14.48;;;15.50;99.90;;;;;;4955223;28;20054;-63
2023/09/10 04:18:47;;;;;;;19.55;14.77;;;15.50;99.90;;;;;;4951355;29;20047;-63
2023/09/10 04:21:14;;;;;;;21.33;14.40;;;15.50;99.90;;;;;;4953611;28;20073;-63
2023/09/10 04:23:40;;;;;;;18.15;14.68;;;15.50;99.90;;;;;;4972576;28;20064;-63
2023/09/10 04:26:07;;;;;;;16.50;13.20;;;15.60;99.90;;;;;;4947301;28;20385;-63
2023/09/10 04:28:34;;;;;;;19.83;14.35;;;15.60;99.90;;;;;;4944999;28;20043;-63
2023/09/10 04:31:02;;;;;;;17.00;13.70;;;15.70;99.90;;;;;;4932953;28;20043;-62
2023/09/10 04:33:29;;;;;;;22.85;15.43;;;15.60;99.90;;;;;;4970983;28;20415;-63
2023/09/10 04:36:01;;;;;;;19.25;14.23;;;15.60;99.90;;;;;;4955106;28;20039;-63
2023/09/10 04:38:27;;;;;;;18.95;14.13;;;15.50;99.90;;;;;;4969371;28;20094;-63
2023/09/10 04:40:55;;;;;;;18.42;13.18;;;15.60;99.90;;;;;;4944258;28;20043;-63
2023/09/10 04:43:22;;;;;;;17.00;13.43;;;15.60;99.90;;;;;;4968271;28;20060;-63
2023/09/10 04:45:50;;;;;;;16.55;13.95;;;15.60;99.90;;;;;;4954804;28;20039;-63
2023/09/10 04:48:17;;;;;;;19.33;13.45;;;15.60;99.90;;;;;;4954948;28;20057;-63
2023/09/10 04:50:45;;;;;;;18.95;13.88;;;15.50;99.90;;;;;;4952753;28;20039;-63
2023/09/10 04:53:13;;;;;;;17.25;13.25;;;15.60;99.90;;;;;;4955002;28;20498;-63
2023/09/10 04:55:40;;;;;;;18.95;14.20;;;15.60;99.90;;;;;;4951983;28;20043;-63
2023/09/10 04:58:08;;;;;;;23.88;13.43;;;15.60;99.90;;;;;;4949848;28;20476;-63
2023/09/10 05:00:39;;;;;;;16.80;13.38;;;15.50;99.90;;;;;;4947289;28;20125;-63
2023/09/10 05:03:06;;;;;;;16.73;13.32;;;15.50;99.90;;;;;;4954966;28;20109;-63
2023/09/10 05:05:33;;;;;;;;;;;15.60;99.90;;;;;;4969175;28;20054;-63
2023/09/10 05:08:00;;;;;;;21.75;13.85;;;15.60;99.90;;;;;;4967674;28;20363;-63
2023/09/10 05:10:28;;;;;;;17.27;13.43;;;15.60;99.90;;;;;;4950082;28;20046;-63
2023/09/10 05:12:55;;;;;;;18.77;13.73;;;15.80;99.90;;;;;;4954846;28;20039;-62
2023/09/10 05:15:22;;;;;;;16.85;12.75;;;15.70;99.90;;;;;;4965051;28;20127;-63
2023/09/10 05:17:49;;;;;;;22.75;14.15;;;15.80;99.90;;;;;;4964203;28;20046;-63
2023/09/10 05:20:17;;;;;;;14.65;12.25;;;15.80;99.90;;;;;;4950466;28;20130;-63
2023/09/10 05:22:44;;;;;;;17.50;13.73;;;15.80;99.90;;;;;;4955192;28;20526;-63
2023/09/10 05:25:10;;;;;;;20.92;14.10;;;15.80;99.90;;;;;;4953435;28;20458;-63
2023/09/10 05:27:37;;;;;;;23.48;13.02;;;15.90;99.90;;;;;;4969202;28;20114;-63
2023/09/10 05:30:06;;;;;;;16.35;12.68;;;15.90;99.90;;;;;;4950862;28;20053;-63
2023/09/10 05:32:33;;;;;;;19.60;12.68;;;15.90;99.90;;;;;;4951064;28;20075;-63
2023/09/10 05:35:00;;;;;;;16.10;12.52;;;15.90;99.90;;;;;;4948657;29;20039;-63
2023/09/10 05:37:27;;;;;;;17.40;13.55;;;16.00;99.90;;;;;;4951124;28;20610;-62
2023/09/10 05:39:54;;;;;;;15.05;12.75;;;16.00;99.90;;;;;;4943490;28;20116;-63
2023/09/10 05:42:21;;;;;;;16.55;13.43;;;16.00;99.90;;;;;;4965128;28;20051;-63
2023/09/10 05:44:54;;;;;;;17.05;13.07;;;16.10;99.90;;;;;;4955910;28;20071;-63
2023/09/10 05:47:22;;;;;;;16.83;12.95;;;16.10;99.90;;;;;;4957327;28;20655;-63
2023/09/10 05:49:52;;;;;;;17.90;13.27;;;16.10;99.90;;;;;;4973066;28;20074;-63
2023/09/10 05:52:19;;;;;;;20.70;14.38;;;16.10;99.90;;;;;;4958089;28;20098;-63
2023/09/10 05:54:46;;;;;;;20.13;14.60;;;16.20;99.90;;;;;;4949602;28;20043;-63
2023/09/10 05:57:13;;;;;;;25.17;14.43;;;16.10;99.90;;;;;;4964916;28;20036;-63
2023/09/10 05:59:40;;;;;;;20.25;14.98;;;16.20;99.90;;;;;;4969328;28;20133;-63
2023/09/10 06:02:07;;;;;;;;;;;16.30;99.90;;;;;;4957290;28;20503;-62
2023/09/10 06:04:34;;;;;;;18.25;14.00;;;16.30;99.90;;;;;;4965365;28;19922;-63
2023/09/10 06:07:03;;;;;;;23.75;15.95;;;16.30;99.90;;;;;;4953322;28;20043;-63
2023/09/10 06:09:31;;;;;;;20.92;15.82;;;16.40;99.90;;;;;;4964530;28;20051;-63
2023/09/10 06:12:04;;;;;;;19.65;15.60;;;16.40;99.90;;;;;;4980085;28;20042;-63
2023/09/10 06:14:34;;;;;;;25.70;16.45;;;16.50;99.90;;;;;;4958934;28;20066;-63
2023/09/10 06:17:02;;;;;;;19.70;15.75;;;16.60;99.90;;;;;;4957574;28;20043;-62
2023/09/10 06:19:30;;;;;;;20.00;15.95;;;16.70;99.90;;;;;;4948178;28;20047;-62
2023/09/10 06:21:56;;;;;;;19.65;16.00;;;16.80;99.90;;;;;;4973652;28;20141;-63
2023/09/10 06:24:23;;;;;;;25.48;16.15;;;16.80;99.90;;;;;;4972829;28;20130;-63
2023/09/10 06:26:50;;;;;;;22.42;15.13;;;16.90;99.90;;;;;;4956205;28;20063;-63
2023/09/10 06:29:17;;;;;;;20.58;15.38;;;17.00;99.90;;;;;;4973033;28;20039;-63
2023/09/10 06:31:44;;;;;;;20.45;14.80;;;17.10;99.90;;;;;;4974455;28;20054;-63
2023/09/10 06:34:11;;;;;;;19.77;15.65;;;17.30;99.90;;;;;;4955253;28;20043;-62
2023/09/10 06:36:38;;;;;;;22.92;15.13;;;17.40;99.90;;;;;;4970834;28;20047;-62
2023/09/10 06:39:05;;;;;;;20.10;14.70;;;17.50;99.90;;;;;;4947364;28;20129;-62
2023/09/10 06:41:32;;;;;;;21.25;14.95;;;17.50;99.90;;;;;;4957136;28;20038;-62
2023/09/10 06:43:59;;;;;;;16.02;13.25;;;17.70;99.90;;;;;;4974101;28;20522;-62
2023/09/10 06:46:28;;;;;;;18.30;14.32;;;17.80;99.90;;;;;;4956794;28;20404;-62
2023/09/10 06:48:55;;;;;;;19.25;13.48;;;17.90;99.90;;;;;;4972736;28;20035;-62
2023/09/10 06:51:22;;;;;;;;;;;18.10;99.90;;;;;;4969538;28;20046;-62
2023/09/10 06:53:49;;;;;;;15.52;12.98;;;18.20;99.90;;;;;;4964972;28;19929;-62
2023/09/10 06:56:15;;;;;;;16.27;13.13;;;18.20;99.90;;;;;;4966110;28;20043;-62
2023/09/10 06:58:42;;;;;;;16.75;12.80;;;18.30;99.90;;;;;;4965887;28;20049;-62
2023/09/10 07:01:09;;;;;;;16.65;12.90;;;18.30;99.90;;;;;;4972538;28;20046;-62
2023/09/10 07:03:37;;;;;;;16.75;12.73;;;18.50;99.90;;;;;;4973834;28;20105;-62
2023/09/10 07:06:05;;;;;;;17.95;13.68;;;18.70;99.90;;;;;;4972089;28;20097;-62
2023/09/10 07:08:34;;;;;;;17.08;13.15;;;18.80;99.90;;;;;;4964735;28;20419;-62
2023/09/10 07:11:01;;;;;;;15.82;12.45;;;18.90;99.90;;;;;;4971820;28;20058;-62
2023/09/10 07:13:29;;;;;;;17.05;12.70;;;19.00;99.90;;;;;;4972763;28;20043;-62
2023/09/10 07:15:56;;;;;;;19.38;13.35;;;19.10;99.90;;;;;;4972286;28;20126;-62
2023/09/10 07:18:23;;;;;;;17.23;12.63;;;19.30;99.90;;;;;;4972622;28;20093;-62
2023/09/10 07:20:50;;;;;;;16.58;13.18;;;19.40;99.90;;;;;;4972162;28;20043;-62
2023/09/10 07:23:17;;;;;;;16.08;12.90;;;19.60;99.90;;;;;;4972532;28;20074;-62
2023/09/10 07:25:43;;;;;;;16.45;12.90;;;19.60;99.90;;;;;;4956203;28;20102;-62
2023/09/10 07:28:10;;;;;;;17.00;13.38;;;19.70;99.90;;;;;;4965974;28;20341;-62
2023/09/10 07:30:38;;;;;;;17.08;13.32;;;19.80;99.90;;;;;;4973327;28;20045;-62
2023/09/10 07:33:05;;;;;;;17.55;12.77;;;20.00;99.90;;;;;;4973081;28;20038;-62
2023/09/10 07:35:32;;;;;;;19.08;12.82;;;20.00;99.90;;;;;;4973557;28;20070;-63
2023/09/10 07:37:58;;;;;;;20.80;12.98;;;20.10;99.90;;;;;;4966208;28;20035;-62
2023/09/10 07:40:25;;;;;;;15.50;12.98;;;20.20;99.90;;;;;;4973040;28;20038;-62
2023/09/10 07:42:52;;;;;;;14.63;12.18;;;20.30;99.90;;;;;;4968528;28;20051;-62
2023/09/10 07:45:19;;;;;;;15.32;12.27;;;20.40;99.90;;;;;;4973619;28;20042;-63
2023/09/10 07:47:47;;;;;;;13.93;12.20;;;20.60;99.90;;;;;;4972032;28;20051;-63
2023/09/10 07:50:14;;;;;;;15.82;11.88;;;20.70;99.90;;;;;;4963663;28;20101;-62
2023/09/10 07:52:41;;;;;;;17.23;12.48;;;20.70;99.90;;;;;;4965007;28;20114;-63
2023/09/10 07:55:08;;;;;;;19.85;12.90;;;20.70;99.90;;;;;;4964667;28;20046;-62
2023/09/10 07:57:34;;;;;;;16.23;12.27;;;20.90;99.90;;;;;;4963093;28;20496;-63
2023/09/10 08:00:01;;;;;;;19.10;12.48;;;21.10;99.90;;;;;;4962623;28;20058;-62
2023/09/10 08:02:37;;;;;;;15.65;13.45;;;21.20;99.90;;;;;;4964257;28;20058;-62
2023/09/10 08:05:05;;;;;;;13.43;12.02;;;21.20;99.90;;;;;;4963532;28;20053;-62
2023/09/10 08:07:33;;;;;;;13.57;12.10;;;21.40;99.90;;;;;;4963624;28;20066;-62
2023/09/10 08:09:59;;;;;;;16.70;12.73;;;21.40;99.90;;;;;;4965789;28;20046;-62
2023/09/10 08:12:26;;;;;;;15.68;12.38;;;21.50;99.90;;;;;;4963522;28;20555;-62
2023/09/10 08:14:53;;;;;;;17.80;13.00;;;21.50;99.90;;;;;;4972739;28;20050;-62
2023/09/10 08:17:21;;;;;;;15.30;12.57;;;21.70;99.90;;;;;;4967108;28;20130;-63
2023/09/10 08:19:47;;;;;;;18.25;12.82;;;21.80;99.90;;;;;;4966950;28;20040;-63
2023/09/10 08:22:15;;;;;;;13.35;11.45;;;21.80;99.90;;;;;;4965069;28;20047;-63
2023/09/10 08:24:42;;;;;;;14.43;12.40;;;22.10;99.90;;;;;;4963451;28;20042;-63
2023/09/10 08:27:12;;;;;;;19.63;12.57;;;22.20;99.90;;;;;;4970023;28;20381;-63
2023/09/10 08:29:39;;;;;;;17.20;12.70;;;22.30;99.90;;;;;;4965359;28;20138;-63
2023/09/10 08:32:06;;;;;;;14.88;12.70;;;22.40;99.90;;;;;;4933215;28;20050;-63
2023/09/10 08:34:33;;;;;;;;;;;22.50;99.90;;;;;;4961097;28;20043;-63
2023/09/10 08:37:02;;;;;;;13.40;11.68;;;22.60;99.90;;;;;;4964395;28;19922;-63
2023/09/10 08:39:29;;;;;;;15.23;12.75;;;22.70;99.90;;;;;;4963019;28;20420;-63
2023/09/10 08:42:06;;;;;;;15.18;12.90;;;22.80;99.90;;;;;;4962315;28;20085;-63
2023/09/10 08:44:33;;;;;;;14.80;12.50;;;23.00;99.90;;;;;;4963994;28;20534;-63
2023/09/10 08:47:02;;;;;;;14.63;12.95;;;23.00;99.90;;;;;;4972477;28;20434;-63
2023/09/10 08:49:34;;;;;;;13.77;12.32;;;23.00;99.90;;;;;;4971359;28;20046;-63
2023/09/10 08:52:01;;;;;;;15.63;12.25;;;23.00;99.90;;;;;;4972663;28;20056;-63
2023/09/10 08:54:28;;;;;;;19.70;12.70;;;23.10;99.90;;;;;;4954681;28;20049;-63
2023/09/10 08:56:55;;;;;;;;;;;23.10;99.90;;;;;;4964215;28;20041;-63
2023/09/10 08:59:23;;;;;;;14.52;11.48;;;23.30;99.90;;;;;;4971741;28;19922;-63
2023/09/10 09:01:50;;;;;;;15.82;12.40;;;23.40;99.90;;;;;;4971755;28;20051;-63
2023/09/10 09:04:18;;;;;;;13.15;11.25;;;23.60;99.90;;;;;;4970485;28;20039;-63
2023/09/10 09:06:51;;;;;;;13.88;11.93;;;23.70;99.90;;;;;;4963261;28;20070;-62
2023/09/10 09:09:20;;;;;;;15.00;12.35;;;23.80;99.90;;;;;;4959685;28;20039;-63
2023/09/10 09:11:48;;;;;;;12.85;11.55;;;23.80;99.90;;;;;;4969368;28;20058;-63
2023/09/10 09:14:16;;;;;;;12.70;11.38;;;23.80;99.90;;;;;;4964026;28;20114;-63
2023/09/10 09:16:45;;;;;;;14.75;12.68;;;23.80;99.90;;;;;;4972752;28;20053;-63
2023/09/10 09:19:14;;;;;;;15.32;11.48;;;23.80;99.90;;;;;;4969342;28;20086;-63
2023/09/10 09:21:42;;;;;;;13.90;11.95;;;23.80;99.90;;;;;;4976281;28;20054;-63
2023/09/10 09:24:12;;;;;;;15.70;11.88;;;23.80;99.90;;;;;;4976128;28;20608;-63
2023/09/10 09:26:41;;;;;;;16.83;12.32;;;23.90;99.90;;;;;;4975779;28;20062;-63
2023/09/10 09:29:08;;;;;;;13.88;12.32;;;24.00;99.90;;;;;;4975982;28;20102;-63
2023/09/10 09:31:35;;;;;;;13.43;12.02;;;24.30;99.90;;;;;;4976085;28;20463;-63
2023/09/10 09:34:02;;;;;;;14.43;12.07;;;24.30;99.90;;;;;;4975273;28;20051;-63
2023/09/10 09:36:32;;;;;;;14.63;12.57;;;24.40;99.90;;;;;;4975463;28;20560;-63
2023/09/10 09:39:07;;;;;;;13.95;12.32;;;24.50;99.90;;;;;;4973661;28;20491;-63
2023/09/10 09:41:35;;;;;;;13.60;12.05;;;24.60;99.90;;;;;;4969399;28;20084;-63
2023/09/10 09:44:03;;;;;;;14.75;11.52;;;24.70;99.90;;;;;;4969090;28;20140;-63
2023/09/10 09:46:32;;;;;;;16.42;11.60;;;24.90;99.90;;;;;;4968313;28;20049;-63
2023/09/10 09:48:59;;;;;;;13.35;11.73;;;25.00;99.90;;;;;;4967427;28;20050;-63
2023/09/10 09:51:27;;;;;;;12.35;11.05;;;25.10;99.90;;;;;;4974912;28;20067;-63
2023/09/10 09:53:55;;;;;;;12.80;11.00;;;25.20;99.90;;;;;;4965258;28;20510;-63
2023/09/10 09:56:21;;;;;;;13.63;11.68;;;25.10;99.90;;;;;;4964772;28;20039;-63
2023/09/10 09:58:48;;;;;;;;;;;25.20;99.90;;;;;;4965378;28;20077;-63
2023/09/10 10:01:15;;;;;;;13.27;11.75;;;25.30;99.90;;;;;;4962544;28;19922;-63
2023/09/10 10:03:42;;;;;;;12.80;11.05;;;25.40;99.90;;;;;;4968796;28;20054;-63
2023/09/10 10:06:09;;;;;;;12.50;11.07;;;25.50;99.90;;;;;;4966958;28;20460;-63
2023/09/10 10:08:37;;;;;;;11.95;10.52;;;25.70;99.90;;;;;;4965094;28;20051;-63
2023/09/10 10:11:04;;;;;;;11.82;10.40;;;25.90;99.90;;;;;;4974855;28;20058;-63
2023/09/10 10:13:33;;;;;;;12.77;11.48;;;25.90;99.90;;;;;;4974618;28;20459;-63
2023/09/10 10:16:02;;;;;;;12.52;11.25;;;25.80;99.90;;;;;;4968467;28;20050;-63
2023/09/10 10:18:29;;;;;;;13.90;11.00;;;25.90;99.90;;;;;;4963904;28;20039;-63
2023/09/10 10:20:58;;;;;;;14.43;11.55;;;25.90;99.90;;;;;;4971949;28;20039;-63
2023/09/10 10:23:25;;;;;;;12.38;11.07;;;26.00;99.90;;;;;;4975340;28;20106;-63
2023/09/10 10:25:53;;;;;;;14.20;11.77;;;26.00;99.90;;;;;;4974611;28;20047;-63
2023/09/10 10:28:21;;;;;;;14.60;11.32;;;26.00;99.90;;;;;;4967384;28;20047;-63
2023/09/10 10:31:12;;;;;;;13.35;11.38;;;25.90;99.90;;;;;;4968276;28;20042;-63
2023/09/10 10:33:48;;;;;;;14.35;11.50;;;25.80;99.90;;;;;;4969682;28;20038;-63
2023/09/10 10:36:38;;;;;;;12.15;10.93;;;25.80;99.90;;;;;;4956092;28;20448;-63
2023/09/10 10:39:09;;;;;;;12.85;11.10;;;25.90;99.90;;;;;;4973199;28;20043;-63
2023/09/10 10:41:42;;;;;;;12.32;11.02;;;25.90;99.90;;;;;;4969329;28;20046;-63
2023/09/10 10:44:19;;;;;;;16.45;11.90;;;25.80;99.90;;;;;;4964433;28;20411;-63
2023/09/10 10:46:52;;;;;;;12.18;10.88;;;26.00;99.90;;;;;;4974902;28;20051;-63
2023/09/10 10:49:20;;;;;;;13.68;12.25;;;26.10;99.90;;;;;;4973495;28;20054;-63
2023/09/10 10:51:51;;;;;;;14.43;12.82;;;26.10;99.90;;;;;;4974753;28;20038;-63
2023/09/10 10:54:22;;;;;;;14.32;12.13;;;26.00;99.90;;;;;;4971022;28;20058;-63
2023/09/10 10:56:50;;;;;;;13.35;12.02;;;26.00;99.90;;;;;;4970705;28;20067;-63
2023/09/10 10:59:18;;;;;;;14.15;12.65;;;26.00;99.90;;;;;;4965892;28;20049;-64
2023/09/10 11:02:15;;;;;;;13.65;12.25;;;25.90;99.90;;;;;;4967677;28;20039;-63
2023/09/10 11:04:58;;;;;;;12.75;11.43;;;26.00;99.90;;;;;;4952827;28;20121;-63
2023/09/10 11:07:29;;;;;;;12.38;11.07;;;26.10;99.90;;;;;;4963752;28;20043;-63
2023/09/10 11:09:58;;;;;;;15.77;11.95;;;26.10;99.90;;;;;;4974074;28;20080;-63
2023/09/10 11:12:25;;;;;;;14.52;11.82;;;26.00;99.90;;;;;;4972812;28;20066;-63
2023/09/10 11:15:01;;;;;;;13.88;11.85;;;26.10;99.90;;;;;;4974521;28;20043;-63
2023/09/10 11:17:32;;;;;;;14.32;11.95;;;26.20;99.90;;;;;;4972548;28;20097;-63
2023/09/10 11:20:00;;;;;;;17.85;11.65;;;26.30;99.90;;;;;;4966692;28;20046;-63
2023/09/10 11:22:27;;;;;;;12.38;11.07;;;26.30;99.90;;;;;;4959731;28;20066;-63
2023/09/10 11:25:07;;;;;;;13.13;11.63;;;26.40;99.90;;;;;;4965600;28;20046;-63
2023/09/10 11:27:34;;;;;;;12.43;11.13;;;26.30;99.90;;;;;;4966618;28;20031;-63
2023/09/10 11:30:19;;;;;;;14.07;10.85;;;26.30;99.90;;;;;;4947692;28;20039;-63
2023/09/10 11:32:46;;;;;;;16.25;10.93;;;26.30;99.90;;;;;;4964983;28;20765;-63
2023/09/10 11:35:19;;;;;;;12.88;11.52;;;26.30;99.90;;;;;;4965702;28;20039;-63
2023/09/10 11:37:49;;;;;;;12.98;11.63;;;26.30;99.90;;;;;;4965863;28;20039;-63
2023/09/10 11:40:17;;;;;;;15.73;11.52;;;26.40;99.90;;;;;;4962819;28;20043;-63
2023/09/10 11:42:46;;;;;;;13.13;11.25;;;26.40;99.90;;;;;;4964199;28;20492;-63
2023/09/10 11:45:14;;;;;;;13.38;11.43;;;26.30;99.90;;;;;;4968902;28;20057;-63
2023/09/10 11:47:44;;;;;;;13.82;11.18;;;26.40;99.90;;;;;;4971951;28;20145;-63
2023/09/10 11:50:13;;;;;;;11.82;10.60;;;26.40;99.90;;;;;;4951399;28;20506;-63
2023/09/10 11:52:40;;;;;;;15.93;11.13;;;26.40;99.90;;;;;;4965451;28;20047;-63
2023/09/10 11:55:10;;;;;;;11.60;10.40;;;26.40;99.90;;;;;;4963278;28;20038;-63
2023/09/10 11:57:38;;;;;;;12.95;11.52;;;26.50;99.90;;;;;;4971031;28;20046;-63
2023/09/10 12:00:06;;;;;;;12.48;11.18;;;26.50;99.90;;;;;;4988764;28;20042;-63
2023/09/10 12:02:40;;;;;;;12.05;10.85;;;26.50;99.90;;;;;;4988689;28;20042;-63
2023/09/10 12:05:08;;;;;;;13.13;10.75;;;26.60;99.90;;;;;;4984907;28;20096;-63
2023/09/10 12:07:35;;;;;;;12.02;10.80;;;26.60;99.90;;;;;;4964760;28;20122;-63
2023/09/10 12:10:02;;;;;;;11.13;10.02;;;26.60;99.90;;;;;;4967452;28;20122;-63
2023/09/10 12:12:34;;;;;;;14.02;10.35;;;26.60;99.90;;;;;;4974144;28;20122;-63
2023/09/10 12:15:02;;;;;;;11.13;9.98;;;26.60;99.90;;;;;;4959576;28;20429;-63
2023/09/10 12:17:29;;;;;;;10.70;9.60;;;26.60;99.90;;;;;;4971973;28;20118;-63
2023/09/10 12:19:57;;;;;;;10.10;9.10;;;26.70;99.90;;;;;;4966203;28;20079;-63
2023/09/10 12:22:24;;;;;;;11.75;9.88;;;26.70;99.90;;;;;;4963076;28;20051;-63
2023/09/10 12:24:51;;;;;;;10.82;9.25;;;26.70;99.90;;;;;;4971131;28;20041;-63
2023/09/10 12:27:18;;;;;;;;;;;26.70;99.90;;;;;;4974897;28;20077;-63
2023/09/10 12:29:45;;;;;;;10.60;9.32;;;26.70;99.90;;;;;;4974213;28;20017;-63
2023/09/10 12:32:12;;;;;;;11.98;9.10;;;26.70;99.90;;;;;;4966277;28;20075;-63
2023/09/10 12:34:39;;;;;;;;;;;26.70;99.90;;;;;;4969145;28;20103;-63
2023/09/10 12:37:06;;;;;;;11.80;8.73;;;26.70;99.90;;;;;;4965928;28;20449;-63